sensor_id;sensor_type;location;lat;lon;timestamp;pressure;altitude;pressure_sealevel;temperature;humidity
8501;BME280;4288;48.484;10.024;2024-03-25T07:00:51;94829.00;;;20.34;49.21
8501;BME280;4288;48.484;10.024;2024-03-25T07:03:19;94836.81;;;20.74;48.47
8501;BME280;4288;48.484;10.024;2024-03-25T07:05:46;94834.63;;;21.11;47.83
8501;BME280;4288;48.484;10.024;2024-03-25T07:08:13;94835.19;;;21.39;47.22
8501;BME280;4288;48.484;10.024;2024-03-25T07:10:42;94837.38;;;21.64;46.84
8501;BME280;4288;48.484;10.024;2024-03-25T07:13:08;94845.88;;;21.80;46.52
8501;BME280;4288;48.484;10.024;2024-03-25T07:15:35;94846.34;;;21.93;46.25
8501;BME280;4288;48.484;10.024;2024-03-25T07:18:03;94856.66;;;22.04;45.91
8501;BME280;4288;48.484;10.024;2024-03-25T07:20:29;94845.19;;;22.14;45.84
8501;BME280;4288;48.484;10.024;2024-03-25T07:22:56;94843.13;;;22.24;45.81
8501;BME280;4288;48.484;10.024;2024-03-25T07:25:23;94847.91;;;22.29;45.85
8501;BME280;4288;48.484;10.024;2024-03-25T07:27:49;94851.47;;;22.35;45.66
8501;BME280;4288;48.484;10.024;2024-03-25T07:30:16;94844.59;;;22.40;45.51
8501;BME280;4288;48.484;10.024;2024-03-25T07:32:43;94844.88;;;22.42;45.44
8501;BME280;4288;48.484;10.024;2024-03-25T07:35:11;94845.63;;;22.42;45.41
8501;BME280;4288;48.484;10.024;2024-03-25T07:37:38;94842.16;;;22.42;44.85
8501;BME280;4288;48.484;10.024;2024-03-25T07:40:05;94845.91;;;22.44;44.79
8501;BME280;4288;48.484;10.024;2024-03-25T07:42:32;94840.19;;;22.42;43.87
8501;BME280;4288;48.484;10.024;2024-03-25T07:44:58;94837.47;;;22.42;44.22
8501;BME280;4288;48.484;10.024;2024-03-25T07:47:25;94838.97;;;22.43;43.68
8501;BME280;4288;48.484;10.024;2024-03-25T07:49:52;94836.72;;;22.42;44.19
8501;BME280;4288;48.484;10.024;2024-03-25T07:52:19;94833.91;;;22.36;42.11
8501;BME280;4288;48.484;10.024;2024-03-25T07:54:46;94842.94;;;22.28;41.24
8501;BME280;4288;48.484;10.024;2024-03-25T07:57:12;94831.88;;;22.17;40.29
8501;BME280;4288;48.484;10.024;2024-03-25T07:59:39;94833.00;;;22.10;40.59
8501;BME280;4288;48.484;10.024;2024-03-25T08:02:05;94838.38;;;21.90;40.25
8501;BME280;4288;48.484;10.024;2024-03-25T08:04:32;94829.44;;;21.89;42.73
8501;BME280;4288;48.484;10.024;2024-03-25T08:06:58;94819.13;;;21.93;43.51
8501;BME280;4288;48.484;10.024;2024-03-25T08:09:26;94827.66;;;22.01;43.73
8501;BME280;4288;48.484;10.024;2024-03-25T08:11:52;94825.78;;;22.07;43.79
8501;BME280;4288;48.484;10.024;2024-03-25T08:14:19;94828.88;;;22.14;43.88
8501;BME280;4288;48.484;10.024;2024-03-25T08:16:45;94823.03;;;22.22;43.83
8501;BME280;4288;48.484;10.024;2024-03-25T08:19:12;94818.91;;;22.26;43.88
8501;BME280;4288;48.484;10.024;2024-03-25T08:21:38;94816.25;;;22.32;44.06
8501;BME280;4288;48.484;10.024;2024-03-25T08:24:05;94814.09;;;22.36;43.86
8501;BME280;4288;48.484;10.024;2024-03-25T08:26:33;94812.69;;;22.40;44.03
8501;BME280;4288;48.484;10.024;2024-03-25T08:28:59;94811.00;;;22.43;44.16
8501;BME280;4288;48.484;10.024;2024-03-25T08:31:26;94810.03;;;22.46;43.92
8501;BME280;4288;48.484;10.024;2024-03-25T08:33:53;94800.94;;;22.49;44.09
8501;BME280;4288;48.484;10.024;2024-03-25T08:36:19;94798.00;;;22.52;44.00
8501;BME280;4288;48.484;10.024;2024-03-25T08:38:46;94795.56;;;22.54;44.25
8501;BME280;4288;48.484;10.024;2024-03-25T08:41:12;94795.38;;;22.58;44.13
8501;BME280;4288;48.484;10.024;2024-03-25T08:43:40;94795.94;;;22.62;44.27
8501;BME280;4288;48.484;10.024;2024-03-25T08:46:06;94792.72;;;22.63;44.37
8501;BME280;4288;48.484;10.024;2024-03-25T08:48:33;94799.97;;;22.66;44.41
8501;BME280;4288;48.484;10.024;2024-03-25T08:50:59;94788.88;;;22.70;44.20
8501;BME280;4288;48.484;10.024;2024-03-25T08:53:26;94791.38;;;22.73;44.28
8501;BME280;4288;48.484;10.024;2024-03-25T08:55:52;94798.59;;;22.76;44.20
8501;BME280;4288;48.484;10.024;2024-03-25T08:58:19;94788.25;;;22.80;44.33
8501;BME280;4288;48.484;10.024;2024-03-25T09:00:46;94787.78;;;22.82;44.37
8501;BME280;4288;48.484;10.024;2024-03-25T09:03:13;94784.59;;;22.83;44.09
8501;BME280;4288;48.484;10.024;2024-03-25T09:05:39;94786.81;;;22.85;44.34
8501;BME280;4288;48.484;10.024;2024-03-25T09:08:06;94781.16;;;22.88;44.27
8501;BME280;4288;48.484;10.024;2024-03-25T09:10:33;94773.75;;;22.89;44.07
8501;BME280;4288;48.484;10.024;2024-03-25T09:13:18;94776.00;;;22.90;44.15
8501;BME280;4288;48.484;10.024;2024-03-25T09:15:45;94769.59;;;22.93;44.10
8501;BME280;4288;48.484;10.024;2024-03-25T09:18:12;94766.38;;;22.95;43.27
8501;BME280;4288;48.484;10.024;2024-03-25T09:20:39;94773.06;;;22.94;43.91
8501;BME280;4288;48.484;10.024;2024-03-25T09:23:05;94762.63;;;22.92;44.31
8501;BME280;4288;48.484;10.024;2024-03-25T09:25:31;94775.06;;;22.93;44.44
8501;BME280;4288;48.484;10.024;2024-03-25T09:27:58;94765.91;;;22.96;44.30
8501;BME280;4288;48.484;10.024;2024-03-25T09:30:24;94769.66;;;22.99;44.47
8501;BME280;4288;48.484;10.024;2024-03-25T09:32:52;94767.19;;;23.01;44.48
8501;BME280;4288;48.484;10.024;2024-03-25T09:35:19;94761.53;;;23.05;44.50
8501;BME280;4288;48.484;10.024;2024-03-25T09:37:45;94759.84;;;23.07;44.29
8501;BME280;4288;48.484;10.024;2024-03-25T09:40:12;94758.59;;;23.08;44.10
8501;BME280;4288;48.484;10.024;2024-03-25T09:42:46;94759.34;;;23.09;44.18
8501;BME280;4288;48.484;10.024;2024-03-25T09:45:15;94763.56;;;23.10;44.14
8501;BME280;4288;48.484;10.024;2024-03-25T09:47:46;94756.63;;;23.09;43.82
8501;BME280;4288;48.484;10.024;2024-03-25T09:50:14;94755.13;;;23.08;44.10
8501;BME280;4288;48.484;10.024;2024-03-25T09:52:41;94752.13;;;23.06;43.80
8501;BME280;4288;48.484;10.024;2024-03-25T09:55:08;94740.50;;;23.05;43.82
8501;BME280;4288;48.484;10.024;2024-03-25T09:57:35;94743.94;;;23.06;43.99
8501;BME280;4288;48.484;10.024;2024-03-25T10:00:03;94742.72;;;23.07;43.93
8501;BME280;4288;48.484;10.024;2024-03-25T10:02:30;94744.22;;;23.08;44.11
8501;BME280;4288;48.484;10.024;2024-03-25T10:04:56;94731.06;;;23.06;43.81
8501;BME280;4288;48.484;10.024;2024-03-25T10:07:25;94725.13;;;23.08;44.02
8501;BME280;4288;48.484;10.024;2024-03-25T10:09:52;94728.34;;;23.06;43.99
8501;BME280;4288;48.484;10.024;2024-03-25T10:12:18;94715.47;;;23.07;43.85
8501;BME280;4288;48.484;10.024;2024-03-25T10:14:45;94707.56;;;23.09;43.97
8501;BME280;4288;48.484;10.024;2024-03-25T10:17:11;94702.88;;;23.09;43.94
8501;BME280;4288;48.484;10.024;2024-03-25T10:19:38;94706.81;;;23.08;43.96
8501;BME280;4288;48.484;10.024;2024-03-25T10:22:06;94706.53;;;23.06;43.47
8501;BME280;4288;48.484;10.024;2024-03-25T10:24:41;94706.25;;;23.04;43.81
8501;BME280;4288;48.484;10.024;2024-03-25T10:27:16;94707.25;;;23.01;43.45
8501;BME280;4288;48.484;10.024;2024-03-25T10:29:43;94701.78;;;23.01;43.70
8501;BME280;4288;48.484;10.024;2024-03-25T10:32:10;94701.03;;;23.00;43.84
8501;BME280;4288;48.484;10.024;2024-03-25T10:34:36;94693.34;;;22.99;43.71
8501;BME280;4288;48.484;10.024;2024-03-25T10:37:04;94698.31;;;23.00;43.81
8501;BME280;4288;48.484;10.024;2024-03-25T10:39:32;94677.03;;;23.05;40.65
8501;BME280;4288;48.484;10.024;2024-03-25T10:42:02;94665.91;;;22.82;33.67
8501;BME280;4288;48.484;10.024;2024-03-25T10:44:29;94664.91;;;22.60;37.74
8501;BME280;4288;48.484;10.024;2024-03-25T10:46:58;94655.41;;;22.55;40.87
8501;BME280;4288;48.484;10.024;2024-03-25T10:49:33;94657.69;;;22.57;41.83
8501;BME280;4288;48.484;10.024;2024-03-25T10:52:02;94651.06;;;22.63;41.93
8501;BME280;4288;48.484;10.024;2024-03-25T10:54:30;94644.97;;;22.68;41.92
8501;BME280;4288;48.484;10.024;2024-03-25T10:57:01;94645.75;;;22.74;42.05
8501;BME280;4288;48.484;10.024;2024-03-25T10:59:30;94639.63;;;22.79;42.28
8501;BME280;4288;48.484;10.024;2024-03-25T11:01:57;94645.13;;;22.85;42.33
8501;BME280;4288;48.484;10.024;2024-03-25T11:04:23;94640.22;;;22.89;42.42
8501;BME280;4288;48.484;10.024;2024-03-25T11:06:50;94640.00;;;22.92;42.66
8501;BME280;4288;48.484;10.024;2024-03-25T11:09:24;94643.25;;;22.96;42.54
8501;BME280;4288;48.484;10.024;2024-03-25T11:11:51;94640.31;;;23.00;42.09
8501;BME280;4288;48.484;10.024;2024-03-25T11:14:20;94632.84;;;22.95;42.46
8501;BME280;4288;48.484;10.024;2024-03-25T11:16:52;94636.50;;;22.66;33.88
8501;BME280;4288;48.484;10.024;2024-03-25T11:19:18;94627.13;;;22.27;32.34
8501;BME280;4288;48.484;10.024;2024-03-25T11:21:45;94632.75;;;22.03;34.82
8501;BME280;4288;48.484;10.024;2024-03-25T11:24:12;94626.34;;;22.06;37.26
8501;BME280;4288;48.484;10.024;2024-03-25T11:26:42;94618.78;;;22.16;38.18
8501;BME280;4288;48.484;10.024;2024-03-25T11:29:08;94618.72;;;22.10;34.01
8501;BME280;4288;48.484;10.024;2024-03-25T11:31:39;94616.56;;;21.80;32.44
8501;BME280;4288;48.484;10.024;2024-03-25T11:34:06;94616.50;;;21.74;35.64
8501;BME280;4288;48.484;10.024;2024-03-25T11:36:32;94617.63;;;21.82;36.67
8501;BME280;4288;48.484;10.024;2024-03-25T11:38:59;94610.81;;;21.92;37.45
8501;BME280;4288;48.484;10.024;2024-03-25T11:41:26;94612.47;;;22.04;38.33
8501;BME280;4288;48.484;10.024;2024-03-25T11:43:53;94606.97;;;22.19;38.91
8501;BME280;4288;48.484;10.024;2024-03-25T11:46:20;94598.94;;;22.30;39.21
8501;BME280;4288;48.484;10.024;2024-03-25T11:48:48;94588.91;;;22.42;39.85
8501;BME280;4288;48.484;10.024;2024-03-25T11:51:17;94592.97;;;22.52;40.17
8501;BME280;4288;48.484;10.024;2024-03-25T11:53:43;94581.94;;;22.61;40.45
8501;BME280;4288;48.484;10.024;2024-03-25T11:56:11;94587.75;;;22.68;40.83
8501;BME280;4288;48.484;10.024;2024-03-25T11:58:38;94577.91;;;22.76;41.11
8501;BME280;4288;48.484;10.024;2024-03-25T12:01:05;94580.22;;;22.83;41.48
8501;BME280;4288;48.484;10.024;2024-03-25T12:03:34;94572.84;;;22.89;41.60
8501;BME280;4288;48.484;10.024;2024-03-25T12:06:02;94566.19;;;22.96;41.78
8501;BME280;4288;48.484;10.024;2024-03-25T12:08:28;94560.78;;;23.01;42.17
8501;BME280;4288;48.484;10.024;2024-03-25T12:10:55;94551.91;;;23.07;42.31
8501;BME280;4288;48.484;10.024;2024-03-25T12:13:39;94547.75;;;23.11;42.58
8501;BME280;4288;48.484;10.024;2024-03-25T12:16:06;94551.47;;;23.14;41.56
8501;BME280;4288;48.484;10.024;2024-03-25T12:18:33;94549.16;;;23.01;37.90
8501;BME280;4288;48.484;10.024;2024-03-25T12:21:01;94523.00;;;22.83;41.76
8501;BME280;4288;48.484;10.024;2024-03-25T12:23:29;94541.47;;;22.99;42.23
8501;BME280;4288;48.484;10.024;2024-03-25T12:25:58;94542.44;;;23.02;42.53
8501;BME280;4288;48.484;10.024;2024-03-25T12:28:25;94541.50;;;23.05;42.98
8501;BME280;4288;48.484;10.024;2024-03-25T12:30:52;94534.06;;;23.06;43.21
8501;BME280;4288;48.484;10.024;2024-03-25T12:33:19;94528.13;;;23.07;43.34
8501;BME280;4288;48.484;10.024;2024-03-25T12:35:46;94519.97;;;23.07;43.40
8501;BME280;4288;48.484;10.024;2024-03-25T12:38:24;94509.06;;;23.07;43.49
8501;BME280;4288;48.484;10.024;2024-03-25T12:40:51;94497.88;;;23.05;38.59
8501;BME280;4288;48.484;10.024;2024-03-25T12:43:18;94487.72;;;22.74;32.97
8501;BME280;4288;48.484;10.024;2024-03-25T12:45:44;94477.00;;;22.40;31.27
8501;BME280;4288;48.484;10.024;2024-03-25T12:48:11;94484.34;;;22.08;30.98
8501;BME280;4288;48.484;10.024;2024-03-25T12:50:37;94474.84;;;21.78;30.51
8501;BME280;4288;48.484;10.024;2024-03-25T12:53:04;94477.50;;;21.72;33.28
8501;BME280;4288;48.484;10.024;2024-03-25T12:55:32;94468.31;;;21.70;32.58
8501;BME280;4288;48.484;10.024;2024-03-25T12:57:59;94457.50;;;21.75;32.72
8501;BME280;4288;48.484;10.024;2024-03-25T13:00:25;94457.28;;;21.79;32.22
8501;BME280;4288;48.484;10.024;2024-03-25T13:02:52;94455.78;;;21.78;31.70
8501;BME280;4288;48.484;10.024;2024-03-25T13:05:18;94452.41;;;21.63;30.65
8501;BME280;4288;48.484;10.024;2024-03-25T13:07:45;94448.94;;;21.62;32.97
8501;BME280;4288;48.484;10.024;2024-03-25T13:10:11;94442.13;;;21.72;34.17
8501;BME280;4288;48.484;10.024;2024-03-25T13:12:39;94435.63;;;21.84;34.84
8501;BME280;4288;48.484;10.024;2024-03-25T13:15:06;94433.78;;;21.96;35.61
8501;BME280;4288;48.484;10.024;2024-03-25T13:17:33;94432.63;;;22.08;36.04
8501;BME280;4288;48.484;10.024;2024-03-25T13:19:59;94432.00;;;22.19;36.65
8501;BME280;4288;48.484;10.024;2024-03-25T13:22:26;94425.94;;;22.29;37.06
8501;BME280;4288;48.484;10.024;2024-03-25T13:24:52;94429.94;;;22.39;37.41
8501;BME280;4288;48.484;10.024;2024-03-25T13:27:18;94426.06;;;22.46;37.01
8501;BME280;4288;48.484;10.024;2024-03-25T13:29:46;94413.84;;;22.36;32.96
8501;BME280;4288;48.484;10.024;2024-03-25T13:32:13;94411.88;;;22.36;33.14
8501;BME280;4288;48.484;10.024;2024-03-25T13:34:39;94411.34;;;22.32;31.58
8501;BME280;4288;48.484;10.024;2024-03-25T13:37:06;94405.69;;;22.10;30.24
8501;BME280;4288;48.484;10.024;2024-03-25T13:39:32;94408.78;;;21.97;30.90
8501;BME280;4288;48.484;10.024;2024-03-25T13:41:59;94404.66;;;22.02;32.58
8501;BME280;4288;48.484;10.024;2024-03-25T13:44:25;94398.50;;;22.07;32.61
8501;BME280;4288;48.484;10.024;2024-03-25T13:46:53;94396.25;;;22.05;32.31
8501;BME280;4288;48.484;10.024;2024-03-25T13:49:19;94394.13;;;22.15;33.64
8501;BME280;4288;48.484;10.024;2024-03-25T13:51:46;94396.66;;;22.24;34.70
8501;BME280;4288;48.484;10.024;2024-03-25T13:54:12;94391.75;;;22.28;33.77
8501;BME280;4288;48.484;10.024;2024-03-25T13:56:38;94381.09;;;22.25;32.88
8501;BME280;4288;48.484;10.024;2024-03-25T13:59:05;94385.34;;;22.31;35.70
8501;BME280;4288;48.484;10.024;2024-03-25T14:01:31;94380.69;;;22.37;36.89
8501;BME280;4288;48.484;10.024;2024-03-25T14:03:59;94374.31;;;22.46;36.65
8501;BME280;4288;48.484;10.024;2024-03-25T14:06:26;94370.00;;;22.59;36.87
8501;BME280;4288;48.484;10.024;2024-03-25T14:08:53;94370.31;;;22.72;37.28
8501;BME280;4288;48.484;10.024;2024-03-25T14:11:19;94366.69;;;22.86;37.41
8501;BME280;4288;48.484;10.024;2024-03-25T14:13:46;94355.38;;;22.99;37.79
8501;BME280;4288;48.484;10.024;2024-03-25T14:16:12;94360.63;;;23.14;37.67
8501;BME280;4288;48.484;10.024;2024-03-25T14:18:38;94352.03;;;23.26;37.72
8501;BME280;4288;48.484;10.024;2024-03-25T14:21:06;94345.16;;;23.36;38.06
8501;BME280;4288;48.484;10.024;2024-03-25T14:23:33;94354.63;;;23.46;38.32
8501;BME280;4288;48.484;10.024;2024-03-25T14:25:59;94348.69;;;23.53;38.25
8501;BME280;4288;48.484;10.024;2024-03-25T14:28:26;94296.31;;;23.33;38.16
8501;BME280;4288;48.484;10.024;2024-03-25T14:30:52;94335.31;;;23.72;38.30
8501;BME280;4288;48.484;10.024;2024-03-25T14:33:19;94333.84;;;23.82;38.38
8501;BME280;4288;48.484;10.024;2024-03-25T14:35:45;94319.50;;;23.93;38.10
8501;BME280;4288;48.484;10.024;2024-03-25T14:38:13;94333.66;;;24.02;38.24
8501;BME280;4288;48.484;10.024;2024-03-25T14:40:39;94308.31;;;23.85;31.64
8501;BME280;4288;48.484;10.024;2024-03-25T14:43:06;94311.75;;;23.58;29.99
8501;BME280;4288;48.484;10.024;2024-03-25T14:45:32;94305.72;;;23.37;30.82
8501;BME280;4288;48.484;10.024;2024-03-25T14:47:59;94304.16;;;23.20;30.30
8501;BME280;4288;48.484;10.024;2024-03-25T14:50:25;94295.72;;;23.12;30.26
8501;BME280;4288;48.484;10.024;2024-03-25T14:52:52;94287.78;;;23.09;31.83
8501;BME280;4288;48.484;10.024;2024-03-25T14:55:19;94285.31;;;23.11;33.27
8501;BME280;4288;48.484;10.024;2024-03-25T14:57:46;94285.81;;;23.15;34.12
8501;BME280;4288;48.484;10.024;2024-03-25T15:00:13;94278.66;;;23.17;33.19
8501;BME280;4288;48.484;10.024;2024-03-25T15:02:40;94273.66;;;23.16;34.60
8501;BME280;4288;48.484;10.024;2024-03-25T15:05:07;94277.16;;;23.22;35.16
8501;BME280;4288;48.484;10.024;2024-03-25T15:07:33;94273.47;;;23.25;35.72
8501;BME280;4288;48.484;10.024;2024-03-25T15:10:00;94235.72;;;23.07;36.27
8501;BME280;4288;48.484;10.024;2024-03-25T15:12:28;94260.34;;;23.29;36.48
8501;BME280;4288;48.484;10.024;2024-03-25T15:14:55;94256.16;;;23.33;36.85
8501;BME280;4288;48.484;10.024;2024-03-25T15:17:21;94253.91;;;23.37;36.98
8501;BME280;4288;48.484;10.024;2024-03-25T15:19:48;94246.00;;;23.39;37.30
8501;BME280;4288;48.484;10.024;2024-03-25T15:22:14;94250.94;;;23.41;36.59
8501;BME280;4288;48.484;10.024;2024-03-25T15:24:41;94260.38;;;23.40;36.70
8501;BME280;4288;48.484;10.024;2024-03-25T15:27:07;94250.69;;;23.39;37.25
8501;BME280;4288;48.484;10.024;2024-03-25T15:29:35;94241.72;;;23.27;33.81
8501;BME280;4288;48.484;10.024;2024-03-25T15:32:01;94243.22;;;23.23;35.89
8501;BME280;4288;48.484;10.024;2024-03-25T15:34:28;94240.00;;;23.24;36.62
8501;BME280;4288;48.484;10.024;2024-03-25T15:36:54;94245.19;;;23.28;37.00
8501;BME280;4288;48.484;10.024;2024-03-25T15:39:21;94236.53;;;23.29;37.39
8501;BME280;4288;48.484;10.024;2024-03-25T15:41:47;94230.13;;;23.32;37.89
8501;BME280;4288;48.484;10.024;2024-03-25T15:44:14;94226.91;;;23.34;37.86
8501;BME280;4288;48.484;10.024;2024-03-25T15:46:43;94211.72;;;23.27;34.16
8501;BME280;4288;48.484;10.024;2024-03-25T15:49:09;94207.69;;;22.95;31.38
8501;BME280;4288;48.484;10.024;2024-03-25T15:51:36;94206.19;;;22.83;33.40
8501;BME280;4288;48.484;10.024;2024-03-25T15:54:02;94210.16;;;22.82;35.19
8501;BME280;4288;48.484;10.024;2024-03-25T15:56:29;94201.47;;;22.83;35.85
8501;BME280;4288;48.484;10.024;2024-03-25T15:58:55;94193.56;;;22.85;36.42
8501;BME280;4288;48.484;10.024;2024-03-25T16:01:22;94187.88;;;22.89;36.87
8501;BME280;4288;48.484;10.024;2024-03-25T16:03:50;94193.56;;;22.85;36.01
8501;BME280;4288;48.484;10.024;2024-03-25T16:06:16;94183.88;;;22.79;34.49
8501;BME280;4288;48.484;10.024;2024-03-25T16:08:43;94184.09;;;22.64;33.36
8501;BME280;4288;48.484;10.024;2024-03-25T16:11:15;94181.56;;;22.61;35.31
8501;BME280;4288;48.484;10.024;2024-03-25T16:13:41;94178.13;;;22.60;35.67
8501;BME280;4288;48.484;10.024;2024-03-25T16:16:08;94163.44;;;22.52;35.78
8501;BME280;4288;48.484;10.024;2024-03-25T16:18:34;94162.69;;;22.46;37.83
8501;BME280;4288;48.484;10.024;2024-03-25T16:21:04;94159.97;;;22.46;38.76
8501;BME280;4288;48.484;10.024;2024-03-25T16:23:38;94171.34;;;22.45;39.47
8501;BME280;4288;48.484;10.024;2024-03-25T16:26:05;94160.19;;;22.43;39.86
8501;BME280;4288;48.484;10.024;2024-03-25T16:28:31;94156.47;;;22.40;40.06
8501;BME280;4288;48.484;10.024;2024-03-25T16:30:58;94160.41;;;22.39;40.13
8501;BME280;4288;48.484;10.024;2024-03-25T16:33:24;94145.81;;;22.37;40.23
8501;BME280;4288;48.484;10.024;2024-03-25T16:35:51;94147.03;;;22.36;40.28
8501;BME280;4288;48.484;10.024;2024-03-25T16:38:19;94153.72;;;22.35;40.82
8501;BME280;4288;48.484;10.024;2024-03-25T16:40:45;94150.75;;;22.33;40.66
8501;BME280;4288;48.484;10.024;2024-03-25T16:43:12;94145.03;;;22.31;40.63
8501;BME280;4288;48.484;10.024;2024-03-25T16:45:38;94147.50;;;22.29;40.92
8501;BME280;4288;48.484;10.024;2024-03-25T16:48:05;94144.03;;;22.28;40.88
8501;BME280;4288;48.484;10.024;2024-03-25T16:50:32;94143.78;;;22.26;41.18
8501;BME280;4288;48.484;10.024;2024-03-25T16:52:58;94145.03;;;22.25;41.15
8501;BME280;4288;48.484;10.024;2024-03-25T16:55:26;94127.69;;;22.23;41.25
8501;BME280;4288;48.484;10.024;2024-03-25T16:57:52;94135.59;;;22.21;41.35
8501;BME280;4288;48.484;10.024;2024-03-25T17:00:19;94140.28;;;22.20;41.26
8501;BME280;4288;48.484;10.024;2024-03-25T17:02:46;94140.03;;;22.18;41.52
8501;BME280;4288;48.484;10.024;2024-03-25T17:05:12;94136.56;;;22.18;41.56
8501;BME280;4288;48.484;10.024;2024-03-25T17:07:39;94137.25;;;22.07;36.92
8501;BME280;4288;48.484;10.024;2024-03-25T17:10:06;94139.03;;;21.79;34.16
8501;BME280;4288;48.484;10.024;2024-03-25T17:12:34;94136.69;;;21.61;36.21
8501;BME280;4288;48.484;10.024;2024-03-25T17:15:01;94135.44;;;21.56;38.17
8501;BME280;4288;48.484;10.024;2024-03-25T17:17:27;94148.78;;;21.60;39.59
8501;BME280;4288;48.484;10.024;2024-03-25T17:19:54;94142.41;;;21.63;40.13
8501;BME280;4288;48.484;10.024;2024-03-25T17:22:20;94139.94;;;21.65;40.70
8501;BME280;4288;48.484;10.024;2024-03-25T17:24:46;94137.00;;;21.68;40.83
8501;BME280;4288;48.484;10.024;2024-03-25T17:27:13;94145.41;;;21.70;40.96
8501;BME280;4288;48.484;10.024;2024-03-25T17:29:41;94139.50;;;21.72;41.08
8501;BME280;4288;48.484;10.024;2024-03-25T17:32:07;94143.69;;;21.73;40.98
8501;BME280;4288;48.484;10.024;2024-03-25T17:34:33;94139.00;;;21.73;41.37
8501;BME280;4288;48.484;10.024;2024-03-25T17:37:00;94135.78;;;21.75;41.28
8501;BME280;4288;48.484;10.024;2024-03-25T17:39:26;94136.28;;;21.73;41.18
8501;BME280;4288;48.484;10.024;2024-03-25T17:41:53;94136.53;;;21.75;41.22
8501;BME280;4288;48.484;10.024;2024-03-25T17:44:19;94137.28;;;21.76;41.35
8501;BME280;4288;48.484;10.024;2024-03-25T17:46:47;94131.59;;;21.74;41.54
8501;BME280;4288;48.484;10.024;2024-03-25T17:49:13;94124.66;;;21.73;41.62
8501;BME280;4288;48.484;10.024;2024-03-25T17:51:40;94126.63;;;21.72;41.62
8501;BME280;4288;48.484;10.024;2024-03-25T17:54:06;94123.16;;;21.72;41.62
8501;BME280;4288;48.484;10.024;2024-03-25T17:56:33;94127.84;;;21.71;41.69
8501;BME280;4288;48.484;10.024;2024-03-25T17:58:59;94123.66;;;21.70;41.77
8501;BME280;4288;48.484;10.024;2024-03-25T18:01:25;94126.38;;;21.70;41.86
8501;BME280;4288;48.484;10.024;2024-03-25T18:03:54;94121.19;;;21.67;41.36
8501;BME280;4288;48.484;10.024;2024-03-25T18:06:20;94122.66;;;21.68;40.99
8501;BME280;4288;48.484;10.024;2024-03-25T18:08:46;94124.16;;;21.69;41.14
8501;BME280;4288;48.484;10.024;2024-03-25T18:11:13;94120.19;;;21.70;41.40
8501;BME280;4288;48.484;10.024;2024-03-25T18:13:40;94114.75;;;21.70;41.58
8501;BME280;4288;48.484;10.024;2024-03-25T18:16:06;94110.06;;;21.70;41.28
8501;BME280;4288;48.484;10.024;2024-03-25T18:18:33;94109.94;;;21.54;38.21
8501;BME280;4288;48.484;10.024;2024-03-25T18:21:00;94119.06;;;21.51;39.55
8501;BME280;4288;48.484;10.024;2024-03-25T18:23:27;94109.41;;;21.50;40.06
8501;BME280;4288;48.484;10.024;2024-03-25T18:25:53;94112.41;;;21.52;40.71
8501;BME280;4288;48.484;10.024;2024-03-25T18:28:20;94107.97;;;21.54;40.87
8501;BME280;4288;48.484;10.024;2024-03-25T18:30:54;94107.00;;;21.57;41.15
8501;BME280;4288;48.484;10.024;2024-03-25T18:33:21;94106.78;;;21.61;41.06
8501;BME280;4288;48.484;10.024;2024-03-25T18:35:47;94106.56;;;21.64;41.49
8501;BME280;4288;48.484;10.024;2024-03-25T18:38:15;94107.56;;;21.67;41.40
8501;BME280;4288;48.484;10.024;2024-03-25T18:40:41;94100.41;;;21.69;41.39
8501;BME280;4288;48.484;10.024;2024-03-25T18:43:08;94102.16;;;21.72;41.47
8501;BME280;4288;48.484;10.024;2024-03-25T18:45:35;94106.88;;;21.77;41.68
8501;BME280;4288;48.484;10.024;2024-03-25T18:48:01;94105.47;;;21.82;41.74
8501;BME280;4288;48.484;10.024;2024-03-25T18:50:28;94099.03;;;21.85;41.75
8501;BME280;4288;48.484;10.024;2024-03-25T18:52:54;94103.53;;;21.88;41.90
8501;BME280;4288;48.484;10.024;2024-03-25T18:55:22;94106.50;;;21.90;41.89
8501;BME280;4288;48.484;10.024;2024-03-25T18:57:48;94104.75;;;21.92;41.85
8501;BME280;4288;48.484;10.024;2024-03-25T19:00:15;94111.97;;;21.95;42.05
8501;BME280;4288;48.484;10.024;2024-03-25T19:02:42;94100.59;;;21.97;41.91
8501;BME280;4288;48.484;10.024;2024-03-25T19:05:08;94103.56;;;21.99;42.11
8501;BME280;4288;48.484;10.024;2024-03-25T19:07:35;94092.19;;;22.00;42.00
8501;BME280;4288;48.484;10.024;2024-03-25T19:10:01;94095.16;;;22.02;41.73
8501;BME280;4288;48.484;10.024;2024-03-25T19:12:30;94096.19;;;22.05;41.91
8501;BME280;4288;48.484;10.024;2024-03-25T19:14:56;94087.53;;;22.06;42.11
8501;BME280;4288;48.484;10.024;2024-03-25T19:17:22;94070.91;;;21.93;42.05
8501;BME280;4288;48.484;10.024;2024-03-25T19:19:49;94087.03;;;22.08;42.15
8501;BME280;4288;48.484;10.024;2024-03-25T19:22:15;94084.81;;;22.12;42.13
8501;BME280;4288;48.484;10.024;2024-03-25T19:24:42;94086.31;;;22.13;42.17
8501;BME280;4288;48.484;10.024;2024-03-25T19:27:08;94087.06;;;22.13;42.27
8501;BME280;4288;48.484;10.024;2024-03-25T19:29:36;94087.34;;;22.16;42.06
8501;BME280;4288;48.484;10.024;2024-03-25T19:32:03;94086.56;;;22.15;42.16
8501;BME280;4288;48.484;10.024;2024-03-25T19:34:29;94090.31;;;22.18;42.49
8501;BME280;4288;48.484;10.024;2024-03-25T19:36:56;94082.88;;;22.18;42.58
8501;BME280;4288;48.484;10.024;2024-03-25T19:39:22;94076.22;;;22.19;42.55
8501;BME280;4288;48.484;10.024;2024-03-25T19:41:49;94073.75;;;22.21;42.64
8501;BME280;4288;48.484;10.024;2024-03-25T19:44:16;94075.22;;;22.22;42.63
8501;BME280;4288;48.484;10.024;2024-03-25T19:46:44;94078.19;;;22.24;42.63
8501;BME280;4288;48.484;10.024;2024-03-25T19:49:10;94079.69;;;22.25;42.86
8501;BME280;4288;48.484;10.024;2024-03-25T19:51:36;94073.00;;;22.26;42.75
8501;BME280;4288;48.484;10.024;2024-03-25T19:54:03;94071.78;;;22.27;42.70
8501;BME280;4288;48.484;10.024;2024-03-25T19:56:30;94062.88;;;22.27;42.72
8501;BME280;4288;48.484;10.024;2024-03-25T19:58:56;94063.63;;;22.27;42.73
8501;BME280;4288;48.484;10.024;2024-03-25T20:01:23;94058.44;;;22.29;42.79
8501;BME280;4288;48.484;10.024;2024-03-25T20:03:50;94056.44;;;22.30;42.70
8501;BME280;4288;48.484;10.024;2024-03-25T20:06:17;94054.47;;;22.30;42.89
8501;BME280;4288;48.484;10.024;2024-03-25T20:08:43;94051.25;;;22.32;42.92